createdAt,value
2023-01-23T00:00:41.673Z,101554.91
2023-01-23T00:03:16.873Z,101562.81
2023-01-23T00:06:11.235Z,101561.28
2023-01-23T00:08:50.613Z,101554.47
2023-01-23T00:11:28.935Z,101549.81
2023-01-23T00:14:09.033Z,101541.97
2023-01-23T00:16:45.673Z,101545.44
2023-01-23T00:19:18.467Z,101538.34
2023-01-23T00:21:50.090Z,101525.41
2023-01-23T00:24:32.069Z,101521.78
2023-01-23T00:27:06.998Z,101517.31
2023-01-23T00:29:34.327Z,101512.91
2023-01-23T00:32:09.570Z,101516.34
2023-01-23T00:34:42.395Z,101518.19
2023-01-23T00:37:21.598Z,101508.66
2023-01-23T00:40:00.035Z,101499.81
2023-01-23T00:42:31.505Z,101500.53
2023-01-23T00:45:04.806Z,101511.69
2023-01-23T00:47:34.724Z,101515.19
2023-01-23T00:50:04.800Z,101522.09
2023-01-23T00:52:38.007Z,101523.16
2023-01-23T00:55:08.622Z,101523.38
2023-01-23T00:57:35.353Z,101540.78
2023-01-23T01:00:04.425Z,101539.00
2023-01-23T01:03:20.974Z,101543.97
2023-01-23T01:05:54.441Z,101541.47
2023-01-23T01:08:24.075Z,101549.97
2023-01-23T01:10:58.181Z,101545.50
2023-01-23T01:16:24.588Z,101530.28
2023-01-23T01:18:54.260Z,101536.38
2023-01-23T01:21:37.625Z,101529.00
2023-01-23T01:24:05.293Z,101532.53
2023-01-23T01:26:45.792Z,101534.94
2023-01-23T01:29:14.514Z,101526.16
2023-01-23T01:31:41.258Z,101537.53
2023-01-23T01:34:17.618Z,101523.44
2023-01-23T01:37:06.230Z,101525.19
2023-01-23T01:39:41.261Z,101516.47
2023-01-23T01:42:07.991Z,101498.97
2023-01-23T01:45:13.766Z,101497.25
2023-01-23T01:47:40.583Z,101491.59
2023-01-23T01:50:12.433Z,101495.28
2023-01-23T01:52:39.733Z,101496.25
2023-01-23T01:55:13.239Z,101479.63
2023-01-23T01:57:50.157Z,101488.88
2023-01-23T02:00:20.024Z,101484.50
2023-01-23T02:02:52.699Z,101482.13
2023-01-23T02:05:25.834Z,101482.00
2023-01-23T02:07:58.602Z,101481.47
2023-01-23T02:10:28.340Z,101472.84
2023-01-23T02:13:20.462Z,101476.25
2023-01-23T02:16:13.052Z,101478.16
2023-01-23T02:18:49.752Z,101469.22
2023-01-23T02:21:26.020Z,101457.97
2023-01-23T02:24:35.115Z,101459.75
2023-01-23T02:27:17.599Z,101459.66
2023-01-23T02:30:00.877Z,101453.59
2023-01-23T02:32:41.672Z,101457.13
2023-01-23T02:35:48.395Z,101451.69
2023-01-23T02:41:04.254Z,101446.56
2023-01-23T02:43:39.174Z,101441.50
2023-01-23T02:46:08.463Z,101439.91
2023-01-23T02:51:38.760Z,101427.31
2023-01-23T02:56:53.668Z,101420.75
2023-01-23T02:59:43.763Z,101421.06
2023-01-23T03:02:10.941Z,101427.13
2023-01-23T03:04:49.875Z,101424.06
2023-01-23T03:07:16.566Z,101412.84
2023-01-23T03:09:46.378Z,101415.31
2023-01-23T03:12:49.691Z,101417.06
2023-01-23T03:15:23.604Z,101415.19
2023-01-23T03:20:55.600Z,101419.53
2023-01-23T03:23:22.351Z,101427.97
2023-01-23T03:26:10.689Z,101424.47
2023-01-23T03:29:09.748Z,101431.91
2023-01-23T03:31:36.862Z,101433.19
2023-01-23T03:34:05.991Z,101431.00
2023-01-23T03:36:33.295Z,101435.41
2023-01-23T03:39:34.871Z,101428.97
2023-01-23T03:42:16.684Z,101431.25
2023-01-23T03:44:53.234Z,101429.88
2023-01-23T03:47:28.748Z,101431.81
2023-01-23T03:50:23.342Z,101428.72
2023-01-23T03:53:05.861Z,101419.81
2023-01-23T03:55:43.444Z,101418.00
2023-01-23T04:04:03.953Z,101422.38
2023-01-23T04:06:45.598Z,101415.97
2023-01-23T04:09:13.175Z,101421.91
2023-01-23T04:11:40.001Z,101415.34
2023-01-23T04:14:08.980Z,101409.03
2023-01-23T04:16:40.223Z,101401.78
2023-01-23T04:19:36.255Z,101399.22
2023-01-23T04:22:12.726Z,101383.41
2023-01-23T04:24:50.749Z,101376.94
2023-01-23T04:27:20.540Z,101367.84
2023-01-23T04:30:00.802Z,101354.03
2023-01-23T04:32:49.687Z,101361.34
2023-01-23T04:38:31.565Z,101350.03
2023-01-23T04:41:28.864Z,101340.22
2023-01-23T04:44:23.174Z,101348.00
2023-01-23T04:49:47.895Z,101338.28
2023-01-23T04:52:18.133Z,101349.78
2023-01-23T04:54:53.604Z,101343.41
2023-01-23T04:57:43.315Z,101333.47
2023-01-23T05:00:17.890Z,101330.44
2023-01-23T05:03:05.629Z,101338.16
2023-01-23T05:05:45.439Z,101348.59
2023-01-23T05:08:21.982Z,101340.50
2023-01-23T05:10:51.291Z,101326.75
2023-01-23T05:13:20.822Z,101329.63
2023-01-23T05:16:18.746Z,101306.94
2023-01-23T05:18:45.559Z,101302.28
2023-01-23T05:21:37.987Z,101292.56
2023-01-23T05:24:19.716Z,101288.69
2023-01-23T05:26:47.379Z,101283.50
2023-01-23T05:29:25.303Z,101283.03
2023-01-23T05:32:01.453Z,101283.66
2023-01-23T05:34:40.153Z,101282.09
2023-01-23T05:37:29.497Z,101272.97
2023-01-23T05:42:44.967Z,101286.78
2023-01-23T05:45:15.795Z,101295.03
2023-01-23T05:47:43.946Z,101296.44
2023-01-23T05:50:16.972Z,101305.78
2023-01-23T05:52:45.968Z,101303.56
2023-01-23T05:55:13.007Z,101300.34
2023-01-23T05:57:51.546Z,101313.53
2023-01-23T06:00:26.458Z,101343.34
2023-01-23T06:03:08.124Z,101346.16
2023-01-23T06:05:37.648Z,101342.19
2023-01-23T06:08:13.590Z,101332.75
2023-01-23T06:10:49.006Z,101327.22
2023-01-23T06:13:23.467Z,101324.47
2023-01-23T06:16:03.649Z,101329.72
2023-01-23T06:18:37.554Z,101334.22
2023-01-23T06:21:17.924Z,101332.63
2023-01-23T06:23:47.628Z,101341.72
2023-01-23T06:26:16.633Z,101336.94
2023-01-23T06:28:49.430Z,101330.16
2023-01-23T06:31:19.254Z,101328.41
2023-01-23T06:33:54.000Z,101333.38
2023-01-23T06:36:30.789Z,101320.13
2023-01-23T06:39:06.842Z,101321.50
2023-01-23T06:41:54.722Z,101324.50
2023-01-23T06:44:21.563Z,101301.38
2023-01-23T06:46:49.579Z,101293.94
2023-01-23T06:49:25.214Z,101278.84
2023-01-23T06:51:54.465Z,101289.47
2023-01-23T06:54:25.230Z,101295.00
2023-01-23T06:56:52.000Z,101292.19
2023-01-23T07:02:12.359Z,101300.00
2023-01-23T07:04:43.177Z,101299.47
2023-01-23T07:07:21.469Z,101296.84
2023-01-23T07:09:48.287Z,101298.44
2023-01-23T07:12:15.317Z,101298.25
2023-01-23T07:17:42.955Z,101288.41
2023-01-23T07:20:10.629Z,101288.19
2023-01-23T07:22:43.572Z,101280.72
2023-01-23T07:25:10.752Z,101279.38
2023-01-23T07:27:37.571Z,101277.56
2023-01-23T07:30:07.976Z,101275.78
2023-01-23T07:32:51.368Z,101270.16
2023-01-23T07:35:23.791Z,101273.81
2023-01-23T07:38:45.656Z,101278.09
2023-01-23T07:40:59.061Z,101280.09
2023-01-23T07:43:44.823Z,101284.81
2023-01-23T07:46:20.152Z,101288.94
2023-01-23T07:48:48.977Z,101291.22
2023-01-23T07:51:26.926Z,101292.47
2023-01-23T07:53:55.414Z,101279.00
2023-01-23T07:56:29.921Z,101297.91
2023-01-23T07:59:04.204Z,101318.09
2023-01-23T08:01:37.025Z,101301.13
2023-01-23T08:04:08.114Z,101297.88
2023-01-23T08:06:41.215Z,101298.34
2023-01-23T08:09:10.977Z,101316.50
2023-01-23T08:11:40.634Z,101304.53
2023-01-23T08:14:17.776Z,101301.44
2023-01-23T08:17:02.017Z,101297.91
2023-01-23T08:19:35.252Z,101310.28
2023-01-23T08:22:35.553Z,101312.09
2023-01-23T08:25:08.578Z,101310.16
2023-01-23T08:27:39.194Z,101315.75
2023-01-23T08:30:12.105Z,101315.75
2023-01-23T08:35:13.941Z,101313.03
2023-01-23T08:37:46.571Z,101309.63
2023-01-23T08:40:14.111Z,101311.38
2023-01-23T08:42:42.590Z,101314.22
2023-01-23T08:45:15.633Z,101302.25
2023-01-23T08:47:42.576Z,101300.16
2023-01-23T08:50:36.321Z,101289.09
2023-01-23T08:53:03.141Z,101294.84
2023-01-23T08:55:49.087Z,101283.22
2023-01-23T08:58:42.692Z,101304.22
2023-01-23T09:01:24.110Z,101311.56
2023-01-23T09:03:57.305Z,101308.09
2023-01-23T09:06:24.352Z,101311.78
2023-01-23T09:09:01.815Z,101296.38
2023-01-23T09:11:37.631Z,101299.03
2023-01-23T09:14:12.958Z,101305.31
2023-01-23T09:16:51.748Z,101301.75
2023-01-23T09:19:18.671Z,101298.88
2023-01-23T09:21:49.046Z,101297.84
2023-01-23T09:24:42.994Z,101278.69
2023-01-23T09:27:12.919Z,101282.19
2023-01-23T09:29:45.687Z,101275.03
2023-01-23T09:32:30.647Z,101265.44
2023-01-23T09:35:00.346Z,101272.72
2023-01-23T09:37:50.714Z,101261.41
2023-01-23T09:40:19.867Z,101264.84
2023-01-23T09:42:54.525Z,101265.91
2023-01-23T09:45:28.109Z,101256.13
2023-01-23T09:51:15.266Z,101248.25
2023-01-23T09:53:47.927Z,101236.66
2023-01-23T09:56:37.421Z,101236.75
2023-01-23T09:59:36.591Z,101237.03
2023-01-23T10:02:17.112Z,101234.97
2023-01-23T10:04:52.179Z,101221.75
2023-01-23T10:07:48.117Z,101216.56
2023-01-23T10:10:45.447Z,101225.09
2023-01-23T10:16:44.988Z,101210.69
2023-01-23T10:19:42.382Z,101204.59
2023-01-23T10:22:37.882Z,101212.16
2023-01-23T10:25:25.655Z,101194.09
2023-01-23T10:27:57.284Z,101193.19
2023-01-23T10:30:26.927Z,101183.72
2023-01-23T10:33:34.687Z,101198.38
2023-01-23T10:36:42.113Z,101195.50
2023-01-23T10:39:29.510Z,101187.66
2023-01-23T10:44:40.121Z,101183.13
2023-01-23T10:47:34.517Z,101179.72
2023-01-23T10:50:09.697Z,101180.31
2023-01-23T10:52:55.300Z,101193.63
2023-01-23T10:55:30.515Z,101180.63
2023-01-23T10:58:12.511Z,101179.59
2023-01-23T11:03:35.854Z,101164.06
2023-01-23T11:09:08.100Z,101176.13
2023-01-23T11:11:36.535Z,101170.16
2023-01-23T11:14:32.249Z,101164.31
2023-01-23T11:17:49.350Z,101150.47
2023-01-23T11:20:43.177Z,101147.44
2023-01-23T11:23:49.503Z,101142.19
2023-01-23T11:26:42.948Z,101154.69
2023-01-23T11:29:24.871Z,101148.91
2023-01-23T11:32:08.298Z,101158.63
2023-01-23T11:34:53.727Z,101161.84
2023-01-23T11:37:38.466Z,101151.13
2023-01-23T11:40:29.463Z,101154.41
2023-01-23T11:42:59.836Z,101142.66
2023-01-23T11:46:07.386Z,101150.28
2023-01-23T11:52:00.063Z,101158.63
2023-01-23T11:54:57.273Z,101181.44
2023-01-23T11:58:08.158Z,101189.06
2023-01-23T12:00:53.418Z,101173.91
2023-01-23T12:03:54.809Z,101158.94
2023-01-23T12:06:27.741Z,101150.38
2023-01-23T12:09:21.970Z,101145.19
2023-01-23T12:12:19.768Z,101130.44
2023-01-23T12:15:22.863Z,101145.47
2023-01-23T12:21:07.277Z,101117.19
2023-01-23T12:24:07.235Z,101114.91
2023-01-23T12:26:41.348Z,101104.31
2023-01-23T12:29:22.454Z,101101.72
2023-01-23T12:31:52.444Z,101093.78
2023-01-23T12:34:31.937Z,101086.94
2023-01-23T12:37:30.095Z,101077.19
2023-01-23T12:40:08.596Z,101063.50
2023-01-23T12:43:11.046Z,101073.19
2023-01-23T12:45:55.764Z,101083.44
2023-01-23T12:49:04.999Z,101079.34
2023-01-23T12:51:46.143Z,101097.41
2023-01-23T12:54:36.273Z,101096.59
2023-01-23T12:57:13.734Z,101099.44
2023-01-23T12:59:43.504Z,101089.03
2023-01-23T13:02:40.572Z,101096.00
2023-01-23T13:05:21.667Z,101090.91
2023-01-23T13:08:10.581Z,101082.22
2023-01-23T13:11:31.817Z,101083.91
2023-01-23T13:14:10.536Z,101074.16
2023-01-23T13:16:49.150Z,101091.56
2023-01-23T13:19:50.560Z,101094.19
2023-01-23T13:22:32.541Z,101100.91
2023-01-23T13:25:18.655Z,101102.34
2023-01-23T13:28:44.028Z,101101.50
2023-01-23T13:31:40.855Z,101089.59
2023-01-23T13:35:05.715Z,101096.50
2023-01-23T13:37:51.680Z,101100.69
2023-01-23T13:40:29.858Z,101094.53
2023-01-23T13:43:28.273Z,101101.34
2023-01-23T13:45:59.202Z,101101.16
2023-01-23T14:22:06.112Z,101145.94
2023-01-23T14:25:05.717Z,101142.47
2023-01-23T14:27:52.232Z,101153.63
2023-01-23T14:30:46.119Z,101165.16
2023-01-23T14:33:25.814Z,101144.91
2023-01-23T14:35:57.476Z,101154.34
2023-01-23T14:38:37.750Z,101164.91
2023-01-23T14:41:08.111Z,101178.72
2023-01-23T14:43:51.795Z,101191.94
2023-01-23T14:47:18.660Z,101188.56
2023-01-23T14:49:49.961Z,101205.38
2023-01-23T14:52:28.811Z,101197.25
2023-01-23T14:55:07.715Z,101213.91
2023-01-23T14:57:37.294Z,101222.72
2023-01-23T15:00:06.093Z,101246.38
2023-01-23T15:05:27.828Z,101260.19
2023-01-23T15:08:03.827Z,101269.13
2023-01-23T15:10:45.075Z,101268.41
2023-01-23T15:13:42.375Z,101278.69
2023-01-23T15:16:34.819Z,101291.88
2023-01-23T15:19:20.056Z,101301.41
2023-01-23T15:21:51.174Z,101312.19
2023-01-23T15:24:37.087Z,101313.34
2023-01-23T15:27:07.949Z,101330.69
2023-01-23T15:29:53.899Z,101331.41
2023-01-23T15:32:25.944Z,101346.31
2023-01-23T15:35:02.348Z,101351.53
2023-01-23T15:37:40.125Z,101359.56
2023-01-23T15:40:19.888Z,101366.63
2023-01-23T15:43:08.519Z,101377.94
2023-01-23T15:45:35.574Z,101388.34
2023-01-23T15:48:15.753Z,101391.78
2023-01-23T15:50:42.699Z,101396.03
2023-01-23T15:53:29.544Z,101406.66
2023-01-23T15:56:19.006Z,101412.00
2023-01-23T15:58:54.361Z,101413.66
2023-01-23T16:01:24.536Z,101425.63
2023-01-23T16:03:55.978Z,101426.59
2023-01-23T16:06:26.535Z,101440.88
2023-01-23T16:09:05.254Z,101449.66
2023-01-23T16:11:38.826Z,101462.88
2023-01-23T16:14:06.097Z,101476.84
2023-01-23T16:16:38.142Z,101475.06
2023-01-23T16:19:39.818Z,101480.41
2023-01-23T16:22:24.877Z,101488.28
2023-01-23T16:24:52.375Z,101493.44
2023-01-23T16:27:30.118Z,101502.16
2023-01-23T16:30:06.303Z,101509.25
2023-01-23T16:32:50.293Z,101508.47
2023-01-23T16:35:20.363Z,101512.06
2023-01-23T16:37:54.302Z,101523.44
2023-01-23T16:40:30.259Z,101519.91
2023-01-23T16:42:59.787Z,101529.38
2023-01-23T16:46:05.282Z,101527.78
2023-01-23T16:48:37.615Z,101539.09
2023-01-23T16:54:30.119Z,101556.63
2023-01-23T16:57:28.592Z,101573.19
2023-01-23T17:03:13.618Z,101588.09
2023-01-23T17:06:07.002Z,101595.94
2023-01-23T17:08:41.269Z,101597.75
2023-01-23T17:11:47.526Z,101611.78
2023-01-23T17:14:28.866Z,101616.13
2023-01-23T17:17:01.900Z,101620.50
2023-01-23T17:19:36.584Z,101626.66
2023-01-23T17:22:22.725Z,101625.66
2023-01-23T17:24:54.726Z,101633.38
2023-01-23T17:27:21.862Z,101628.97
2023-01-23T17:30:03.875Z,101632.63
2023-01-23T17:32:35.922Z,101632.69
2023-01-23T17:35:05.225Z,101644.97
2023-01-23T17:37:56.103Z,101644.97
2023-01-23T17:40:31.250Z,101646.66
2023-01-23T17:43:25.561Z,101654.47
2023-01-23T17:46:01.648Z,101664.72
2023-01-23T17:48:36.951Z,101669.97
2023-01-23T17:51:18.217Z,101680.34
2023-01-23T17:54:03.066Z,101701.78
2023-01-23T17:56:42.419Z,101694.00
2023-01-23T17:59:09.408Z,101700.88
2023-01-23T18:01:37.580Z,101707.38
2023-01-23T18:04:22.345Z,101715.16
2023-01-23T18:06:52.453Z,101717.47
2023-01-23T18:09:27.662Z,101720.16
2023-01-23T18:12:05.147Z,101718.41
2023-01-23T18:15:14.070Z,101713.94
2023-01-23T18:18:07.474Z,101719.00
2023-01-23T18:20:51.408Z,101721.78
2023-01-23T18:23:48.138Z,101728.56
2023-01-23T18:26:51.959Z,101740.59
2023-01-23T18:29:51.368Z,101754.25
2023-01-23T18:33:09.385Z,101758.38
2023-01-23T18:36:43.949Z,101762.41
2023-01-23T18:39:59.269Z,101768.63
2023-01-23T18:42:41.127Z,101780.22
2023-01-23T18:48:45.389Z,101786.78
2023-01-23T18:51:44.678Z,101792.53
2023-01-23T18:54:33.176Z,101786.50
2023-01-23T18:58:02.815Z,101792.94
2023-01-23T19:01:29.386Z,101792.81
2023-01-23T19:08:07.481Z,101797.81
2023-01-23T19:10:56.404Z,101808.00
2023-01-23T19:14:24.200Z,101810.44
2023-01-23T19:17:20.014Z,101814.31
2023-01-23T19:20:39.006Z,101824.63
2023-01-23T19:29:41.049Z,101840.38
2023-01-23T19:32:50.575Z,101854.38
2023-01-23T19:36:00.567Z,101861.38
2023-01-23T19:38:49.065Z,101870.13
2023-01-23T19:42:08.943Z,101876.50
2023-01-23T19:45:00.185Z,101867.03
2023-01-23T19:47:41.942Z,101881.44
2023-01-23T19:50:20.578Z,101874.19
2023-01-23T19:52:49.001Z,101872.50
2023-01-23T19:55:34.954Z,101881.31
2023-01-23T19:58:13.988Z,101889.88
2023-01-23T20:00:54.263Z,101893.34
2023-01-23T20:03:30.803Z,101917.22
2023-01-23T20:06:00.643Z,101913.13
2023-01-23T20:08:50.900Z,101922.47
2023-01-23T20:11:22.638Z,101930.97
2023-01-23T20:14:01.364Z,101933.31
2023-01-23T20:16:49.319Z,101944.53
2023-01-23T20:19:28.443Z,101955.03
2023-01-23T20:22:07.552Z,101963.81
2023-01-23T20:24:39.654Z,101978.63
2023-01-23T20:27:17.426Z,101982.97
2023-01-23T20:29:59.329Z,101989.13
2023-01-23T20:32:45.927Z,101995.06
2023-01-23T20:35:29.523Z,102002.13
2023-01-23T20:38:23.659Z,102015.66
2023-01-23T20:41:02.359Z,102013.88
2023-01-23T20:43:42.222Z,102013.22
2023-01-23T20:46:24.800Z,102013.31
2023-01-23T20:49:15.187Z,102021.69
2023-01-23T20:52:23.823Z,102027.25
2023-01-23T20:55:02.732Z,102030.56
2023-01-23T21:00:38.708Z,102041.44
2023-01-23T21:03:19.156Z,102040.88
2023-01-23T21:05:51.580Z,102039.22
2023-01-23T21:08:34.887Z,102046.56
2023-01-23T21:11:10.301Z,102043.03
2023-01-23T21:13:43.056Z,102038.19
2023-01-23T21:16:31.091Z,102035.28
2023-01-23T21:18:58.116Z,102044.28
2023-01-23T21:21:31.425Z,102050.47
2023-01-23T21:24:05.465Z,102054.78
2023-01-23T21:26:38.185Z,102056.00
2023-01-23T21:29:20.781Z,102057.81
2023-01-23T21:32:09.637Z,102055.53
2023-01-23T21:34:36.534Z,102060.41
2023-01-23T21:37:23.049Z,102063.75
2023-01-23T21:39:49.934Z,102066.50
2023-01-23T21:42:16.741Z,102073.72
2023-01-23T21:47:59.375Z,102091.31
2023-01-23T21:50:27.670Z,102101.97
2023-01-23T21:53:07.980Z,102113.91
2023-01-23T21:55:37.026Z,102110.53
2023-01-23T21:58:08.349Z,102108.56
2023-01-23T22:00:57.230Z,102118.47
2023-01-23T22:03:24.049Z,102124.25
2023-01-23T22:05:51.501Z,102123.06
2023-01-23T22:08:18.994Z,102127.34
2023-01-23T22:11:08.427Z,102129.69
2023-01-23T22:13:49.308Z,102127.25
2023-01-23T22:16:50.729Z,102127.56
2023-01-23T22:19:25.523Z,102139.38
2023-01-23T22:21:57.450Z,102136.31
2023-01-23T22:30:09.579Z,102149.09
2023-01-23T22:32:52.531Z,102155.84
2023-01-23T22:35:26.375Z,102167.03
2023-01-23T22:37:54.071Z,102159.59
2023-01-23T22:40:22.702Z,102164.81
2023-01-23T22:43:07.059Z,102167.19
2023-01-23T22:46:16.047Z,102157.06
2023-01-23T22:48:48.965Z,102163.50
2023-01-23T22:52:03.317Z,102166.94
2023-01-23T22:54:37.715Z,102168.78
2023-01-23T22:57:30.028Z,102170.34
2023-01-23T23:00:24.945Z,102166.47
2023-01-23T23:03:29.452Z,102171.22
2023-01-23T23:06:15.145Z,102175.72
2023-01-23T23:08:46.368Z,102165.56
2023-01-23T23:11:41.191Z,102173.72
2023-01-23T23:14:18.094Z,102177.97
2023-01-23T23:17:07.480Z,102167.72
2023-01-23T23:19:35.423Z,102173.19
2023-01-23T23:22:07.570Z,102179.09
2023-01-23T23:24:43.747Z,102168.97
2023-01-23T23:27:13.707Z,102171.75
2023-01-23T23:30:06.245Z,102176.69
2023-01-23T23:35:24.514Z,102188.31
2023-01-23T23:38:04.382Z,102193.31
2023-01-23T23:40:37.311Z,102202.59
2023-01-23T23:43:10.440Z,102205.56
2023-01-23T23:46:01.886Z,102206.69
2023-01-23T23:48:45.098Z,102213.84
2023-01-23T23:51:19.881Z,102216.22
2023-01-23T23:54:07.051Z,102225.50
2023-01-23T23:56:48.315Z,102222.19
2023-01-23T23:59:21.077Z,102220.81
